sensor_id;sensor_type;location;lat;lon;timestamp;P1;durP1;ratioP1;P2;durP2;ratioP2
28427;SDS011;15662;49.128;8.520;2023-12-20T00:01:07;4.80;;;4.32;;
28427;SDS011;15662;49.128;8.520;2023-12-20T00:03:35;4.88;;;4.38;;
28427;SDS011;15662;49.128;8.520;2023-12-20T00:06:08;5.03;;;4.53;;
28427;SDS011;15662;49.128;8.520;2023-12-20T00:08:36;6.03;;;4.47;;
28427;SDS011;15662;49.128;8.520;2023-12-20T00:11:04;5.63;;;4.45;;
28427;SDS011;15662;49.128;8.520;2023-12-20T00:13:31;5.55;;;4.40;;
28427;SDS011;15662;49.128;8.520;2023-12-20T00:15:58;5.32;;;4.57;;
28427;SDS011;15662;49.128;8.520;2023-12-20T00:18:25;4.72;;;4.25;;
28427;SDS011;15662;49.128;8.520;2023-12-20T00:20:52;5.15;;;4.57;;
28427;SDS011;15662;49.128;8.520;2023-12-20T00:23:19;6.65;;;5.20;;
28427;SDS011;15662;49.128;8.520;2023-12-20T00:25:47;6.93;;;4.70;;
28427;SDS011;15662;49.128;8.520;2023-12-20T00:28:14;5.05;;;4.28;;
28427;SDS011;15662;49.128;8.520;2023-12-20T00:30:41;5.65;;;4.93;;
28427;SDS011;15662;49.128;8.520;2023-12-20T00:33:08;5.93;;;4.40;;
28427;SDS011;15662;49.128;8.520;2023-12-20T00:35:35;5.40;;;4.22;;
28427;SDS011;15662;49.128;8.520;2023-12-20T00:38:03;5.07;;;4.30;;
28427;SDS011;15662;49.128;8.520;2023-12-20T00:40:31;5.03;;;4.30;;
28427;SDS011;15662;49.128;8.520;2023-12-20T00:42:59;4.78;;;3.58;;
28427;SDS011;15662;49.128;8.520;2023-12-20T00:45:26;5.55;;;4.10;;
28427;SDS011;15662;49.128;8.520;2023-12-20T00:47:53;4.85;;;4.03;;
28427;SDS011;15662;49.128;8.520;2023-12-20T00:50:20;4.18;;;3.78;;
28427;SDS011;15662;49.128;8.520;2023-12-20T00:52:49;4.35;;;3.90;;
28427;SDS011;15662;49.128;8.520;2023-12-20T00:55:16;5.00;;;4.07;;
28427;SDS011;15662;49.128;8.520;2023-12-20T00:57:43;4.15;;;3.80;;
28427;SDS011;15662;49.128;8.520;2023-12-20T01:00:11;4.82;;;4.05;;
28427;SDS011;15662;49.128;8.520;2023-12-20T01:02:39;4.88;;;4.20;;
28427;SDS011;15662;49.128;8.520;2023-12-20T01:05:07;4.82;;;3.85;;
28427;SDS011;15662;49.128;8.520;2023-12-20T01:07:35;4.90;;;4.35;;
28427;SDS011;15662;49.128;8.520;2023-12-20T01:10:03;4.63;;;4.07;;
28427;SDS011;15662;49.128;8.520;2023-12-20T01:12:30;5.40;;;4.03;;
28427;SDS011;15662;49.128;8.520;2023-12-20T01:14:57;5.10;;;3.95;;
28427;SDS011;15662;49.128;8.520;2023-12-20T01:17:24;4.65;;;3.80;;
28427;SDS011;15662;49.128;8.520;2023-12-20T01:19:52;5.53;;;4.65;;
28427;SDS011;15662;49.128;8.520;2023-12-20T01:22:19;5.35;;;4.05;;
28427;SDS011;15662;49.128;8.520;2023-12-20T01:24:46;5.25;;;3.90;;
28427;SDS011;15662;49.128;8.520;2023-12-20T01:27:13;3.80;;;3.50;;
28427;SDS011;15662;49.128;8.520;2023-12-20T01:29:40;4.10;;;3.70;;
28427;SDS011;15662;49.128;8.520;2023-12-20T01:32:07;3.95;;;3.55;;
28427;SDS011;15662;49.128;8.520;2023-12-20T01:34:34;4.03;;;3.63;;
28427;SDS011;15662;49.128;8.520;2023-12-20T01:37:02;4.40;;;3.60;;
28427;SDS011;15662;49.128;8.520;2023-12-20T01:39:30;3.85;;;3.55;;
28427;SDS011;15662;49.128;8.520;2023-12-20T01:41:57;4.22;;;3.70;;
28427;SDS011;15662;49.128;8.520;2023-12-20T01:44:25;4.22;;;3.70;;
28427;SDS011;15662;49.128;8.520;2023-12-20T01:46:53;4.00;;;3.60;;
28427;SDS011;15662;49.128;8.520;2023-12-20T01:49:21;4.10;;;3.70;;
28427;SDS011;15662;49.128;8.520;2023-12-20T01:51:49;3.88;;;3.50;;
28427;SDS011;15662;49.128;8.520;2023-12-20T01:54:17;3.75;;;3.45;;
28427;SDS011;15662;49.128;8.520;2023-12-20T01:56:46;3.50;;;3.20;;
28427;SDS011;15662;49.128;8.520;2023-12-20T01:59:17;3.63;;;3.33;;
28427;SDS011;15662;49.128;8.520;2023-12-20T02:01:46;5.45;;;3.60;;
28427;SDS011;15662;49.128;8.520;2023-12-20T02:04:13;4.30;;;3.88;;
28427;SDS011;15662;49.128;8.520;2023-12-20T02:06:41;3.75;;;3.38;;
28427;SDS011;15662;49.128;8.520;2023-12-20T02:09:10;3.83;;;3.45;;
28427;SDS011;15662;49.128;8.520;2023-12-20T02:11:37;3.55;;;3.25;;
28427;SDS011;15662;49.128;8.520;2023-12-20T02:14:05;4.55;;;3.35;;
28427;SDS011;15662;49.128;8.520;2023-12-20T02:16:32;3.80;;;3.42;;
28427;SDS011;15662;49.128;8.520;2023-12-20T02:18:59;4.75;;;3.35;;
28427;SDS011;15662;49.128;8.520;2023-12-20T02:21:32;3.35;;;3.05;;
28427;SDS011;15662;49.128;8.520;2023-12-20T02:24:03;3.60;;;3.25;;
28427;SDS011;15662;49.128;8.520;2023-12-20T02:26:32;3.97;;;3.22;;
28427;SDS011;15662;49.128;8.520;2023-12-20T02:29:00;3.47;;;3.17;;
28427;SDS011;15662;49.128;8.520;2023-12-20T02:31:27;5.10;;;3.40;;
28427;SDS011;15662;49.128;8.520;2023-12-20T02:33:54;3.35;;;3.05;;
28427;SDS011;15662;49.128;8.520;2023-12-20T02:36:22;3.38;;;3.08;;
28427;SDS011;15662;49.128;8.520;2023-12-20T02:38:49;3.55;;;3.25;;
28427;SDS011;15662;49.128;8.520;2023-12-20T02:41:17;3.42;;;3.13;;
28427;SDS011;15662;49.128;8.520;2023-12-20T02:43:44;3.78;;;2.97;;
28427;SDS011;15662;49.128;8.520;2023-12-20T02:46:12;3.40;;;3.10;;
28427;SDS011;15662;49.128;8.520;2023-12-20T02:48:42;3.22;;;2.92;;
28427;SDS011;15662;49.128;8.520;2023-12-20T02:51:09;3.22;;;3.00;;
28427;SDS011;15662;49.128;8.520;2023-12-20T02:53:36;3.03;;;2.83;;
28427;SDS011;15662;49.128;8.520;2023-12-20T02:56:03;3.28;;;2.97;;
28427;SDS011;15662;49.128;8.520;2023-12-20T02:58:31;3.25;;;2.95;;
28427;SDS011;15662;49.128;8.520;2023-12-20T03:00:58;3.33;;;3.05;;
28427;SDS011;15662;49.128;8.520;2023-12-20T03:03:26;3.30;;;2.88;;
28427;SDS011;15662;49.128;8.520;2023-12-20T03:05:53;3.10;;;2.80;;
28427;SDS011;15662;49.128;8.520;2023-12-20T03:08:20;3.17;;;2.83;;
28427;SDS011;15662;49.128;8.520;2023-12-20T03:10:47;2.47;;;2.28;;
28427;SDS011;15662;49.128;8.520;2023-12-20T03:13:14;2.85;;;2.53;;
28427;SDS011;15662;49.128;8.520;2023-12-20T03:15:41;3.50;;;2.60;;
28427;SDS011;15662;49.128;8.520;2023-12-20T03:18:09;2.75;;;2.55;;
28427;SDS011;15662;49.128;8.520;2023-12-20T03:20:36;6.13;;;2.90;;
28427;SDS011;15662;49.128;8.520;2023-12-20T03:23:03;2.90;;;2.60;;
28427;SDS011;15662;49.128;8.520;2023-12-20T03:25:30;2.60;;;2.40;;
28427;SDS011;15662;49.128;8.520;2023-12-20T03:27:57;2.70;;;2.50;;
28427;SDS011;15662;49.128;8.520;2023-12-20T03:30:24;3.13;;;2.30;;
28427;SDS011;15662;49.128;8.520;2023-12-20T03:32:52;2.83;;;2.53;;
28427;SDS011;15662;49.128;8.520;2023-12-20T03:35:19;2.80;;;2.60;;
28427;SDS011;15662;49.128;8.520;2023-12-20T03:37:46;3.95;;;2.17;;
28427;SDS011;15662;49.128;8.520;2023-12-20T03:40:13;2.40;;;2.28;;
28427;SDS011;15662;49.128;8.520;2023-12-20T03:42:40;2.70;;;2.50;;
28427;SDS011;15662;49.128;8.520;2023-12-20T03:45:08;2.42;;;2.22;;
28427;SDS011;15662;49.128;8.520;2023-12-20T03:47:35;2.60;;;2.17;;
28427;SDS011;15662;49.128;8.520;2023-12-20T03:50:03;2.10;;;2.00;;
28427;SDS011;15662;49.128;8.520;2023-12-20T03:52:31;2.50;;;1.77;;
28427;SDS011;15662;49.128;8.520;2023-12-20T03:54:58;2.08;;;1.88;;
28427;SDS011;15662;49.128;8.520;2023-12-20T03:57:25;2.15;;;1.95;;
28427;SDS011;15662;49.128;8.520;2023-12-20T03:59:52;2.13;;;2.03;;
28427;SDS011;15662;49.128;8.520;2023-12-20T04:02:19;2.00;;;1.90;;
28427;SDS011;15662;49.128;8.520;2023-12-20T04:04:46;2.20;;;2.00;;
28427;SDS011;15662;49.128;8.520;2023-12-20T04:07:13;2.40;;;2.20;;
28427;SDS011;15662;49.128;8.520;2023-12-20T04:09:41;2.03;;;1.90;;
28427;SDS011;15662;49.128;8.520;2023-12-20T04:12:08;2.25;;;2.05;;
28427;SDS011;15662;49.128;8.520;2023-12-20T04:14:35;2.58;;;2.38;;
28427;SDS011;15662;49.128;8.520;2023-12-20T04:17:02;2.35;;;2.15;;
28427;SDS011;15662;49.128;8.520;2023-12-20T04:19:30;2.13;;;1.98;;
28427;SDS011;15662;49.128;8.520;2023-12-20T04:21:57;2.28;;;2.08;;
28427;SDS011;15662;49.128;8.520;2023-12-20T04:24:24;2.55;;;2.35;;
28427;SDS011;15662;49.128;8.520;2023-12-20T04:26:51;2.80;;;2.67;;
28427;SDS011;15662;49.128;8.520;2023-12-20T04:29:18;2.22;;;2.13;;
28427;SDS011;15662;49.128;8.520;2023-12-20T04:31:45;2.40;;;2.30;;
28427;SDS011;15662;49.128;8.520;2023-12-20T04:34:13;2.72;;;2.53;;
28427;SDS011;15662;49.128;8.520;2023-12-20T04:36:40;2.38;;;1.98;;
28427;SDS011;15662;49.128;8.520;2023-12-20T04:39:07;1.90;;;1.80;;
28427;SDS011;15662;49.128;8.520;2023-12-20T04:41:34;2.00;;;1.80;;
28427;SDS011;15662;49.128;8.520;2023-12-20T04:44:01;1.80;;;1.70;;
28427;SDS011;15662;49.128;8.520;2023-12-20T04:46:28;1.80;;;1.70;;
28427;SDS011;15662;49.128;8.520;2023-12-20T04:48:55;1.80;;;1.70;;
28427;SDS011;15662;49.128;8.520;2023-12-20T04:51:23;2.70;;;1.60;;
28427;SDS011;15662;49.128;8.520;2023-12-20T04:53:50;1.90;;;1.80;;
28427;SDS011;15662;49.128;8.520;2023-12-20T04:56:17;2.60;;;1.77;;
28427;SDS011;15662;49.128;8.520;2023-12-20T04:58:44;1.80;;;1.70;;
28427;SDS011;15662;49.128;8.520;2023-12-20T05:01:12;2.05;;;1.90;;
28427;SDS011;15662;49.128;8.520;2023-12-20T05:03:39;1.77;;;1.67;;
28427;SDS011;15662;49.128;8.520;2023-12-20T05:06:06;1.90;;;1.80;;
28427;SDS011;15662;49.128;8.520;2023-12-20T05:08:34;2.30;;;2.10;;
28427;SDS011;15662;49.128;8.520;2023-12-20T05:11:01;2.03;;;1.90;;
28427;SDS011;15662;49.128;8.520;2023-12-20T05:13:28;2.17;;;1.95;;
28427;SDS011;15662;49.128;8.520;2023-12-20T05:16:10;1.60;;;1.50;;
28427;SDS011;15662;49.128;8.520;2023-12-20T05:18:37;1.73;;;1.52;;
28427;SDS011;15662;49.128;8.520;2023-12-20T05:21:04;1.60;;;1.50;;
28427;SDS011;15662;49.128;8.520;2023-12-20T05:23:31;1.70;;;1.60;;
28427;SDS011;15662;49.128;8.520;2023-12-20T05:25:58;1.85;;;1.75;;
28427;SDS011;15662;49.128;8.520;2023-12-20T05:28:25;2.30;;;1.70;;
28427;SDS011;15662;49.128;8.520;2023-12-20T05:30:53;1.60;;;1.50;;
28427;SDS011;15662;49.128;8.520;2023-12-20T05:33:21;2.53;;;1.80;;
28427;SDS011;15662;49.128;8.520;2023-12-20T05:35:48;1.75;;;1.65;;
28427;SDS011;15662;49.128;8.520;2023-12-20T05:38:15;2.35;;;1.50;;
28427;SDS011;15662;49.128;8.520;2023-12-20T05:40:43;2.97;;;1.73;;
28427;SDS011;15662;49.128;8.520;2023-12-20T05:43:10;1.60;;;1.50;;
28427;SDS011;15662;49.128;8.520;2023-12-20T05:45:37;2.38;;;1.67;;
28427;SDS011;15662;49.128;8.520;2023-12-20T05:48:04;1.60;;;1.50;;
28427;SDS011;15662;49.128;8.520;2023-12-20T05:50:32;1.90;;;1.80;;
28427;SDS011;15662;49.128;8.520;2023-12-20T05:52:59;2.13;;;1.88;;
28427;SDS011;15662;49.128;8.520;2023-12-20T05:55:26;1.92;;;1.83;;
28427;SDS011;15662;49.128;8.520;2023-12-20T05:57:53;1.92;;;1.83;;
28427;SDS011;15662;49.128;8.520;2023-12-20T06:00:20;2.20;;;2.00;;
28427;SDS011;15662;49.128;8.520;2023-12-20T06:02:47;2.55;;;1.77;;
28427;SDS011;15662;49.128;8.520;2023-12-20T06:05:14;1.80;;;1.70;;
28427;SDS011;15662;49.128;8.520;2023-12-20T06:07:41;2.13;;;2.00;;
28427;SDS011;15662;49.128;8.520;2023-12-20T06:10:09;2.22;;;2.03;;
28427;SDS011;15662;49.128;8.520;2023-12-20T06:12:36;2.13;;;1.95;;
28427;SDS011;15662;49.128;8.520;2023-12-20T06:15:03;2.15;;;2.03;;
28427;SDS011;15662;49.128;8.520;2023-12-20T06:17:32;2.58;;;2.05;;
28427;SDS011;15662;49.128;8.520;2023-12-20T06:20:03;2.38;;;2.17;;
28427;SDS011;15662;49.128;8.520;2023-12-20T06:22:34;2.28;;;2.08;;
28427;SDS011;15662;49.128;8.520;2023-12-20T06:25:02;2.53;;;2.40;;
28427;SDS011;15662;49.128;8.520;2023-12-20T06:27:30;2.53;;;2.33;;
28427;SDS011;15662;49.128;8.520;2023-12-20T06:29:59;2.30;;;2.20;;
28427;SDS011;15662;49.128;8.520;2023-12-20T06:32:26;2.17;;;2.08;;
28427;SDS011;15662;49.128;8.520;2023-12-20T06:34:55;2.20;;;2.10;;
28427;SDS011;15662;49.128;8.520;2023-12-20T06:37:22;2.58;;;2.38;;
28427;SDS011;15662;49.128;8.520;2023-12-20T06:39:50;2.75;;;2.55;;
28427;SDS011;15662;49.128;8.520;2023-12-20T06:42:17;2.40;;;2.20;;
28427;SDS011;15662;49.128;8.520;2023-12-20T06:44:45;2.42;;;2.22;;
28427;SDS011;15662;49.128;8.520;2023-12-20T06:47:12;2.50;;;2.30;;
28427;SDS011;15662;49.128;8.520;2023-12-20T06:49:40;2.60;;;2.40;;
28427;SDS011;15662;49.128;8.520;2023-12-20T06:52:07;2.42;;;2.22;;
28427;SDS011;15662;49.128;8.520;2023-12-20T06:54:34;2.42;;;2.22;;
28427;SDS011;15662;49.128;8.520;2023-12-20T06:57:02;2.40;;;2.20;;
28427;SDS011;15662;49.128;8.520;2023-12-20T06:59:31;2.38;;;2.17;;
28427;SDS011;15662;49.128;8.520;2023-12-20T07:01:58;2.38;;;2.17;;
28427;SDS011;15662;49.128;8.520;2023-12-20T07:04:25;2.17;;;2.08;;
28427;SDS011;15662;49.128;8.520;2023-12-20T07:06:52;2.40;;;2.30;;
28427;SDS011;15662;49.128;8.520;2023-12-20T07:09:24;2.78;;;2.58;;
28427;SDS011;15662;49.128;8.520;2023-12-20T07:11:51;3.08;;;2.53;;
28427;SDS011;15662;49.128;8.520;2023-12-20T07:14:18;2.50;;;2.40;;
28427;SDS011;15662;49.128;8.520;2023-12-20T07:16:45;3.30;;;3.00;;
28427;SDS011;15662;49.128;8.520;2023-12-20T07:19:13;2.67;;;2.47;;
28427;SDS011;15662;49.128;8.520;2023-12-20T07:21:40;2.53;;;2.28;;
28427;SDS011;15662;49.128;8.520;2023-12-20T07:24:07;2.50;;;2.30;;
28427;SDS011;15662;49.128;8.520;2023-12-20T07:26:34;2.50;;;2.30;;
28427;SDS011;15662;49.128;8.520;2023-12-20T07:29:02;1.85;;;1.75;;
28427;SDS011;15662;49.128;8.520;2023-12-20T07:31:30;2.17;;;2.08;;
28427;SDS011;15662;49.128;8.520;2023-12-20T07:33:57;2.58;;;2.38;;
28427;SDS011;15662;49.128;8.520;2023-12-20T07:36:25;2.42;;;2.22;;
28427;SDS011;15662;49.128;8.520;2023-12-20T07:38:52;2.70;;;2.50;;
28427;SDS011;15662;49.128;8.520;2023-12-20T07:41:19;2.53;;;2.30;;
28427;SDS011;15662;49.128;8.520;2023-12-20T07:43:48;3.75;;;2.60;;
28427;SDS011;15662;49.128;8.520;2023-12-20T07:46:15;4.00;;;2.85;;
28427;SDS011;15662;49.128;8.520;2023-12-20T07:48:42;3.60;;;2.55;;
28427;SDS011;15662;49.128;8.520;2023-12-20T07:51:11;2.63;;;2.42;;
28427;SDS011;15662;49.128;8.520;2023-12-20T07:53:38;2.40;;;2.20;;
28427;SDS011;15662;49.128;8.520;2023-12-20T07:56:15;2.45;;;2.25;;
28427;SDS011;15662;49.128;8.520;2023-12-20T07:58:44;1.88;;;1.77;;
28427;SDS011;15662;49.128;8.520;2023-12-20T08:01:19;2.10;;;1.90;;
28427;SDS011;15662;49.128;8.520;2023-12-20T08:03:48;2.45;;;2.20;;
28427;SDS011;15662;49.128;8.520;2023-12-20T08:06:17;2.63;;;1.90;;
28427;SDS011;15662;49.128;8.520;2023-12-20T08:08:45;2.45;;;2.25;;
28427;SDS011;15662;49.128;8.520;2023-12-20T08:11:20;2.22;;;2.05;;
28427;SDS011;15662;49.128;8.520;2023-12-20T08:13:47;2.53;;;2.00;;
28427;SDS011;15662;49.128;8.520;2023-12-20T08:16:14;4.60;;;2.08;;
28427;SDS011;15662;49.128;8.520;2023-12-20T08:18:44;2.13;;;1.73;;
28427;SDS011;15662;49.128;8.520;2023-12-20T08:21:11;1.70;;;1.60;;
28427;SDS011;15662;49.128;8.520;2023-12-20T08:23:38;2.45;;;2.25;;
28427;SDS011;15662;49.128;8.520;2023-12-20T08:26:06;2.05;;;1.95;;
28427;SDS011;15662;49.128;8.520;2023-12-20T08:28:34;2.45;;;2.05;;
28427;SDS011;15662;49.128;8.520;2023-12-20T08:31:03;2.40;;;2.20;;
28427;SDS011;15662;49.128;8.520;2023-12-20T08:33:30;2.42;;;2.22;;
28427;SDS011;15662;49.128;8.520;2023-12-20T08:35:57;2.30;;;2.10;;
28427;SDS011;15662;49.128;8.520;2023-12-20T08:38:25;2.20;;;1.90;;
28427;SDS011;15662;49.128;8.520;2023-12-20T08:40:52;2.72;;;2.28;;
28427;SDS011;15662;49.128;8.520;2023-12-20T08:43:19;3.53;;;2.33;;
28427;SDS011;15662;49.128;8.520;2023-12-20T08:45:46;2.67;;;2.10;;
28427;SDS011;15662;49.128;8.520;2023-12-20T08:48:13;2.40;;;2.30;;
28427;SDS011;15662;49.128;8.520;2023-12-20T08:50:40;3.25;;;2.42;;
28427;SDS011;15662;49.128;8.520;2023-12-20T08:53:08;2.58;;;2.28;;
28427;SDS011;15662;49.128;8.520;2023-12-20T08:55:35;3.47;;;2.40;;
28427;SDS011;15662;49.128;8.520;2023-12-20T08:58:02;2.70;;;2.17;;
28427;SDS011;15662;49.128;8.520;2023-12-20T09:00:30;3.10;;;2.53;;
28427;SDS011;15662;49.128;8.520;2023-12-20T09:02:57;3.53;;;2.88;;
28427;SDS011;15662;49.128;8.520;2023-12-20T09:05:24;3.08;;;2.35;;
28427;SDS011;15662;49.128;8.520;2023-12-20T09:07:51;2.72;;;2.50;;
28427;SDS011;15662;49.128;8.520;2023-12-20T09:10:18;3.45;;;2.30;;
28427;SDS011;15662;49.128;8.520;2023-12-20T09:12:52;2.70;;;2.45;;
28427;SDS011;15662;49.128;8.520;2023-12-20T09:15:24;3.03;;;2.33;;
28427;SDS011;15662;49.128;8.520;2023-12-20T09:17:53;2.10;;;1.90;;
28427;SDS011;15662;49.128;8.520;2023-12-20T09:20:20;2.58;;;1.80;;
28427;SDS011;15662;49.128;8.520;2023-12-20T09:22:50;3.95;;;1.85;;
28427;SDS011;15662;49.128;8.520;2023-12-20T09:25:17;3.58;;;2.20;;
28427;SDS011;15662;49.128;8.520;2023-12-20T09:27:44;4.13;;;1.90;;
28427;SDS011;15662;49.128;8.520;2023-12-20T09:30:12;2.90;;;1.83;;
28427;SDS011;15662;49.128;8.520;2023-12-20T09:32:51;6.47;;;3.83;;
28427;SDS011;15662;49.128;8.520;2023-12-20T09:35:18;4.38;;;2.65;;
28427;SDS011;15662;49.128;8.520;2023-12-20T09:37:46;3.13;;;1.80;;
28427;SDS011;15662;49.128;8.520;2023-12-20T09:40:13;2.83;;;1.60;;
28427;SDS011;15662;49.128;8.520;2023-12-20T09:45:35;4.20;;;1.17;;
28427;SDS011;15662;49.128;8.520;2023-12-20T09:48:02;5.45;;;1.50;;
28427;SDS011;15662;49.128;8.520;2023-12-20T09:50:31;1.98;;;1.30;;
28427;SDS011;15662;49.128;8.520;2023-12-20T09:53:00;2.67;;;1.33;;
28427;SDS011;15662;49.128;8.520;2023-12-20T09:55:28;5.13;;;1.42;;
28427;SDS011;15662;49.128;8.520;2023-12-20T09:57:59;3.58;;;1.30;;
28427;SDS011;15662;49.128;8.520;2023-12-20T10:00:26;3.28;;;1.23;;
28427;SDS011;15662;49.128;8.520;2023-12-20T10:02:57;3.20;;;1.58;;
28427;SDS011;15662;49.128;8.520;2023-12-20T10:05:30;2.92;;;1.60;;
28427;SDS011;15662;49.128;8.520;2023-12-20T10:08:00;5.95;;;1.40;;
28427;SDS011;15662;49.128;8.520;2023-12-20T10:10:28;2.15;;;1.33;;
28427;SDS011;15662;49.128;8.520;2023-12-20T10:15:40;4.90;;;1.70;;
28427;SDS011;15662;49.128;8.520;2023-12-20T10:18:08;4.45;;;1.65;;
28427;SDS011;15662;49.128;8.520;2023-12-20T10:20:37;4.53;;;1.35;;
28427;SDS011;15662;49.128;8.520;2023-12-20T10:23:06;4.28;;;1.45;;
28427;SDS011;15662;49.128;8.520;2023-12-20T10:25:33;3.20;;;1.50;;
28427;SDS011;15662;49.128;8.520;2023-12-20T10:28:11;6.63;;;1.40;;
28427;SDS011;15662;49.128;8.520;2023-12-20T10:30:40;3.67;;;1.38;;
28427;SDS011;15662;49.128;8.520;2023-12-20T10:33:09;4.95;;;1.30;;
28427;SDS011;15662;49.128;8.520;2023-12-20T10:35:38;2.85;;;1.50;;
28427;SDS011;15662;49.128;8.520;2023-12-20T10:38:12;2.67;;;1.33;;
28427;SDS011;15662;49.128;8.520;2023-12-20T10:40:41;4.13;;;1.50;;
28427;SDS011;15662;49.128;8.520;2023-12-20T10:43:09;3.75;;;1.33;;
28427;SDS011;15662;49.128;8.520;2023-12-20T10:45:37;4.57;;;1.50;;
28427;SDS011;15662;49.128;8.520;2023-12-20T10:48:05;4.80;;;1.90;;
28427;SDS011;15662;49.128;8.520;2023-12-20T10:50:34;4.63;;;1.58;;
28427;SDS011;15662;49.128;8.520;2023-12-20T10:53:05;3.10;;;1.50;;
28427;SDS011;15662;49.128;8.520;2023-12-20T10:55:33;3.65;;;1.33;;
28427;SDS011;15662;49.128;8.520;2023-12-20T10:58:09;4.30;;;1.70;;
28427;SDS011;15662;49.128;8.520;2023-12-20T11:00:38;7.03;;;1.90;;
28427;SDS011;15662;49.128;8.520;2023-12-20T11:03:11;5.32;;;1.83;;
28427;SDS011;15662;49.128;8.520;2023-12-20T11:05:58;7.18;;;1.65;;
28427;SDS011;15662;49.128;8.520;2023-12-20T11:14:55;8.18;;;1.77;;
28427;SDS011;15662;49.128;8.520;2023-12-20T11:17:24;2.65;;;1.50;;
28427;SDS011;15662;49.128;8.520;2023-12-20T11:22:30;8.60;;;2.35;;
28427;SDS011;15662;49.128;8.520;2023-12-20T11:25:05;4.15;;;1.83;;
28427;SDS011;15662;49.128;8.520;2023-12-20T11:27:40;7.97;;;1.73;;
28427;SDS011;15662;49.128;8.520;2023-12-20T11:30:15;4.57;;;1.40;;
28427;SDS011;15662;49.128;8.520;2023-12-20T11:32:43;5.57;;;1.40;;
28427;SDS011;15662;49.128;8.520;2023-12-20T11:37:40;3.38;;;1.77;;
28427;SDS011;15662;49.128;8.520;2023-12-20T11:40:11;6.80;;;2.00;;
28427;SDS011;15662;49.128;8.520;2023-12-20T11:42:48;5.80;;;1.60;;
28427;SDS011;15662;49.128;8.520;2023-12-20T11:45:17;8.80;;;1.95;;
28427;SDS011;15662;49.128;8.520;2023-12-20T11:47:49;5.78;;;1.70;;
28427;SDS011;15662;49.128;8.520;2023-12-20T11:50:18;5.50;;;1.95;;
28427;SDS011;15662;49.128;8.520;2023-12-20T11:52:47;7.68;;;1.98;;
28427;SDS011;15662;49.128;8.520;2023-12-20T11:55:15;3.03;;;1.90;;
28427;SDS011;15662;49.128;8.520;2023-12-20T11:57:43;4.43;;;1.90;;
28427;SDS011;15662;49.128;8.520;2023-12-20T12:00:12;5.82;;;1.80;;
28427;SDS011;15662;49.128;8.520;2023-12-20T12:02:40;5.95;;;1.83;;
28427;SDS011;15662;49.128;8.520;2023-12-20T12:05:09;7.78;;;2.15;;
28427;SDS011;15662;49.128;8.520;2023-12-20T12:07:37;3.97;;;1.88;;
28427;SDS011;15662;49.128;8.520;2023-12-20T12:10:04;7.88;;;1.85;;
28427;SDS011;15662;49.128;8.520;2023-12-20T12:12:33;4.53;;;1.73;;
28427;SDS011;15662;49.128;8.520;2023-12-20T12:15:00;4.57;;;1.83;;
28427;SDS011;15662;49.128;8.520;2023-12-20T12:17:29;8.75;;;1.98;;
28427;SDS011;15662;49.128;8.520;2023-12-20T12:20:02;5.38;;;1.92;;
28427;SDS011;15662;49.128;8.520;2023-12-20T12:22:31;4.45;;;2.00;;
28427;SDS011;15662;49.128;8.520;2023-12-20T12:25:08;5.60;;;2.40;;
28427;SDS011;15662;49.128;8.520;2023-12-20T12:27:41;6.90;;;2.50;;
28427;SDS011;15662;49.128;8.520;2023-12-20T12:30:09;5.32;;;2.30;;
28427;SDS011;15662;49.128;8.520;2023-12-20T12:32:39;5.68;;;2.28;;
28427;SDS011;15662;49.128;8.520;2023-12-20T12:35:07;8.90;;;1.90;;
28427;SDS011;15662;49.128;8.520;2023-12-20T12:37:39;5.93;;;2.05;;
28427;SDS011;15662;49.128;8.520;2023-12-20T12:40:11;6.40;;;2.20;;
28427;SDS011;15662;49.128;8.520;2023-12-20T12:42:40;5.03;;;2.08;;
28427;SDS011;15662;49.128;8.520;2023-12-20T12:45:10;4.25;;;2.03;;
28427;SDS011;15662;49.128;8.520;2023-12-20T12:47:38;6.03;;;2.28;;
28427;SDS011;15662;49.128;8.520;2023-12-20T12:50:07;5.50;;;1.90;;
28427;SDS011;15662;49.128;8.520;2023-12-20T12:52:35;6.90;;;2.03;;
28427;SDS011;15662;49.128;8.520;2023-12-20T12:55:02;7.30;;;2.20;;
28427;SDS011;15662;49.128;8.520;2023-12-20T12:57:31;6.72;;;2.00;;
28427;SDS011;15662;49.128;8.520;2023-12-20T13:00:00;5.20;;;2.08;;
28427;SDS011;15662;49.128;8.520;2023-12-20T13:02:29;7.88;;;2.45;;
28427;SDS011;15662;49.128;8.520;2023-12-20T13:04:57;8.05;;;2.25;;
28427;SDS011;15662;49.128;8.520;2023-12-20T13:07:24;4.20;;;1.67;;
28427;SDS011;15662;49.128;8.520;2023-12-20T13:09:51;5.82;;;1.60;;
28427;SDS011;15662;49.128;8.520;2023-12-20T13:12:19;6.30;;;1.90;;
28427;SDS011;15662;49.128;8.520;2023-12-20T13:14:46;5.38;;;1.70;;
28427;SDS011;15662;49.128;8.520;2023-12-20T13:17:13;6.32;;;1.75;;
28427;SDS011;15662;49.128;8.520;2023-12-20T13:19:41;4.70;;;1.50;;
28427;SDS011;15662;49.128;8.520;2023-12-20T13:22:09;5.13;;;1.73;;
28427;SDS011;15662;49.128;8.520;2023-12-20T13:24:36;8.80;;;1.80;;
28427;SDS011;15662;49.128;8.520;2023-12-20T13:27:04;7.22;;;2.15;;
28427;SDS011;15662;49.128;8.520;2023-12-20T13:29:31;8.73;;;1.67;;
28427;SDS011;15662;49.128;8.520;2023-12-20T13:31:58;3.97;;;1.70;;
28427;SDS011;15662;49.128;8.520;2023-12-20T13:34:26;6.68;;;1.70;;
28427;SDS011;15662;49.128;8.520;2023-12-20T13:36:53;7.15;;;1.85;;
28427;SDS011;15662;49.128;8.520;2023-12-20T13:39:20;6.93;;;1.85;;
28427;SDS011;15662;49.128;8.520;2023-12-20T13:41:48;5.60;;;1.88;;
28427;SDS011;15662;49.128;8.520;2023-12-20T13:44:15;5.00;;;1.88;;
28427;SDS011;15662;49.128;8.520;2023-12-20T13:46:42;5.03;;;1.98;;
28427;SDS011;15662;49.128;8.520;2023-12-20T13:49:09;6.95;;;1.80;;
28427;SDS011;15662;49.128;8.520;2023-12-20T13:51:36;4.28;;;1.50;;
28427;SDS011;15662;49.128;8.520;2023-12-20T13:54:03;6.90;;;2.33;;
28427;SDS011;15662;49.128;8.520;2023-12-20T13:56:31;4.30;;;1.90;;
28427;SDS011;15662;49.128;8.520;2023-12-20T13:59:09;9.25;;;2.35;;
28427;SDS011;15662;49.128;8.520;2023-12-20T14:01:36;5.72;;;1.90;;
28427;SDS011;15662;49.128;8.520;2023-12-20T14:04:03;5.85;;;1.95;;
28427;SDS011;15662;49.128;8.520;2023-12-20T14:06:30;5.18;;;1.67;;
28427;SDS011;15662;49.128;8.520;2023-12-20T14:08:58;7.43;;;2.00;;
28427;SDS011;15662;49.128;8.520;2023-12-20T14:11:28;4.93;;;1.50;;
28427;SDS011;15662;49.128;8.520;2023-12-20T14:13:55;6.25;;;1.83;;
28427;SDS011;15662;49.128;8.520;2023-12-20T14:16:24;7.22;;;2.08;;
28427;SDS011;15662;49.128;8.520;2023-12-20T14:18:51;4.85;;;1.50;;
28427;SDS011;15662;49.128;8.520;2023-12-20T14:21:19;3.85;;;1.80;;
28427;SDS011;15662;49.128;8.520;2023-12-20T14:23:46;8.02;;;1.90;;
28427;SDS011;15662;49.128;8.520;2023-12-20T14:26:15;6.18;;;1.73;;
28427;SDS011;15662;49.128;8.520;2023-12-20T14:28:42;6.20;;;1.58;;
28427;SDS011;15662;49.128;8.520;2023-12-20T14:31:10;5.15;;;1.90;;
28427;SDS011;15662;49.128;8.520;2023-12-20T14:33:37;6.90;;;1.95;;
28427;SDS011;15662;49.128;8.520;2023-12-20T14:36:05;7.95;;;2.17;;
28427;SDS011;15662;49.128;8.520;2023-12-20T14:38:33;5.03;;;2.50;;
28427;SDS011;15662;49.128;8.520;2023-12-20T14:41:01;5.57;;;1.90;;
28427;SDS011;15662;49.128;8.520;2023-12-20T14:43:30;3.67;;;1.75;;
28427;SDS011;15662;49.128;8.520;2023-12-20T14:45:57;6.68;;;2.00;;
28427;SDS011;15662;49.128;8.520;2023-12-20T14:48:25;4.45;;;1.75;;
28427;SDS011;15662;49.128;8.520;2023-12-20T14:50:54;6.40;;;2.38;;
28427;SDS011;15662;49.128;8.520;2023-12-20T14:53:21;8.45;;;2.10;;
28427;SDS011;15662;49.128;8.520;2023-12-20T14:55:49;7.68;;;2.10;;
28427;SDS011;15662;49.128;8.520;2023-12-20T14:58:17;8.45;;;2.35;;
28427;SDS011;15662;49.128;8.520;2023-12-20T15:00:44;9.40;;;2.47;;
28427;SDS011;15662;49.128;8.520;2023-12-20T15:03:11;6.18;;;2.00;;
28427;SDS011;15662;49.128;8.520;2023-12-20T15:05:39;5.72;;;1.92;;
28427;SDS011;15662;49.128;8.520;2023-12-20T15:08:07;5.53;;;2.25;;
28427;SDS011;15662;49.128;8.520;2023-12-20T15:10:34;5.05;;;1.80;;